sensor_id;sensor_type;location;lat;lon;timestamp;P1;durP1;ratioP1;P2;durP2;ratioP2
50309;SDS011;36207;51.850;21.698;2022-10-16T00:03:39;26.00;;;16.90;;
50309;SDS011;36207;51.850;21.698;2022-10-16T00:06:07;23.70;;;17.10;;
50309;SDS011;36207;51.850;21.698;2022-10-16T00:08:34;22.40;;;15.70;;
50309;SDS011;36207;51.850;21.698;2022-10-16T00:11:04;22.20;;;16.50;;
50309;SDS011;36207;51.850;21.698;2022-10-16T00:13:34;27.20;;;16.70;;
50309;SDS011;36207;51.850;21.698;2022-10-16T00:16:01;27.20;;;16.80;;
50309;SDS011;36207;51.850;21.698;2022-10-16T00:18:29;24.00;;;16.60;;
50309;SDS011;36207;51.850;21.698;2022-10-16T00:20:55;23.20;;;16.80;;
50309;SDS011;36207;51.850;21.698;2022-10-16T00:23:28;24.40;;;16.90;;
50309;SDS011;36207;51.850;21.698;2022-10-16T00:25:55;27.00;;;17.50;;
50309;SDS011;36207;51.850;21.698;2022-10-16T00:28:23;26.40;;;17.30;;
50309;SDS011;36207;51.850;21.698;2022-10-16T00:30:49;25.10;;;17.20;;
50309;SDS011;36207;51.850;21.698;2022-10-16T00:33:15;25.20;;;17.70;;
50309;SDS011;36207;51.850;21.698;2022-10-16T00:35:42;23.20;;;16.80;;
50309;SDS011;36207;51.850;21.698;2022-10-16T00:38:08;23.30;;;16.60;;
50309;SDS011;36207;51.850;21.698;2022-10-16T00:40:34;26.20;;;17.10;;
50309;SDS011;36207;51.850;21.698;2022-10-16T00:43:00;24.50;;;17.00;;
50309;SDS011;36207;51.850;21.698;2022-10-16T00:45:26;27.90;;;18.00;;
50309;SDS011;36207;51.850;21.698;2022-10-16T00:47:53;24.10;;;17.10;;
50309;SDS011;36207;51.850;21.698;2022-10-16T00:52:55;25.30;;;17.70;;
50309;SDS011;36207;51.850;21.698;2022-10-16T00:55:22;25.60;;;17.90;;
50309;SDS011;36207;51.850;21.698;2022-10-16T00:57:50;26.30;;;17.60;;
50309;SDS011;36207;51.850;21.698;2022-10-16T01:00:19;23.80;;;15.90;;
50309;SDS011;36207;51.850;21.698;2022-10-16T01:02:54;26.50;;;17.10;;
50309;SDS011;36207;51.850;21.698;2022-10-16T01:05:23;27.30;;;17.50;;
50309;SDS011;36207;51.850;21.698;2022-10-16T01:07:58;25.20;;;17.00;;
50309;SDS011;36207;51.850;21.698;2022-10-16T01:13:03;23.80;;;16.80;;
50309;SDS011;36207;51.850;21.698;2022-10-16T01:18:32;30.60;;;17.80;;
50309;SDS011;36207;51.850;21.698;2022-10-16T01:21:08;25.10;;;17.70;;
50309;SDS011;36207;51.850;21.698;2022-10-16T01:24:02;24.80;;;17.30;;
50309;SDS011;36207;51.850;21.698;2022-10-16T01:29:56;24.90;;;17.50;;
50309;SDS011;36207;51.850;21.698;2022-10-16T01:32:33;26.10;;;17.50;;
50309;SDS011;36207;51.850;21.698;2022-10-16T01:35:29;25.70;;;17.30;;
50309;SDS011;36207;51.850;21.698;2022-10-16T01:40:37;24.90;;;17.00;;
50309;SDS011;36207;51.850;21.698;2022-10-16T01:45:39;26.70;;;17.80;;
50309;SDS011;36207;51.850;21.698;2022-10-16T01:48:07;23.10;;;17.40;;
50309;SDS011;36207;51.850;21.698;2022-10-16T01:50:38;25.80;;;17.50;;
50309;SDS011;36207;51.850;21.698;2022-10-16T01:53:08;23.90;;;16.80;;
50309;SDS011;36207;51.850;21.698;2022-10-16T01:55:40;24.70;;;17.10;;
50309;SDS011;36207;51.850;21.698;2022-10-16T01:58:11;24.10;;;17.10;;
50309;SDS011;36207;51.850;21.698;2022-10-16T02:00:41;26.30;;;18.00;;
50309;SDS011;36207;51.850;21.698;2022-10-16T02:03:10;30.60;;;17.30;;
50309;SDS011;36207;51.850;21.698;2022-10-16T02:05:51;25.00;;;17.00;;
50309;SDS011;36207;51.850;21.698;2022-10-16T02:08:20;23.20;;;16.90;;
50309;SDS011;36207;51.850;21.698;2022-10-16T02:10:50;25.20;;;17.00;;
50309;SDS011;36207;51.850;21.698;2022-10-16T02:13:21;23.50;;;17.20;;
50309;SDS011;36207;51.850;21.698;2022-10-16T02:15:54;24.00;;;16.80;;
50309;SDS011;36207;51.850;21.698;2022-10-16T02:18:21;25.10;;;16.00;;
50309;SDS011;36207;51.850;21.698;2022-10-16T02:26:42;26.20;;;16.80;;
50309;SDS011;36207;51.850;21.698;2022-10-16T02:29:43;23.90;;;16.90;;
50309;SDS011;36207;51.850;21.698;2022-10-16T02:32:17;26.60;;;16.80;;
50309;SDS011;36207;51.850;21.698;2022-10-16T02:34:48;25.10;;;16.10;;
50309;SDS011;36207;51.850;21.698;2022-10-16T02:37:16;24.00;;;17.10;;
50309;SDS011;36207;51.850;21.698;2022-10-16T02:39:44;22.70;;;16.40;;
50309;SDS011;36207;51.850;21.698;2022-10-16T02:42:14;23.90;;;15.70;;
50309;SDS011;36207;51.850;21.698;2022-10-16T02:44:41;22.80;;;15.70;;
50309;SDS011;36207;51.850;21.698;2022-10-16T02:47:07;21.70;;;15.90;;
50309;SDS011;36207;51.850;21.698;2022-10-16T02:49:33;25.10;;;15.80;;
50309;SDS011;36207;51.850;21.698;2022-10-16T02:51:59;26.60;;;16.70;;
50309;SDS011;36207;51.850;21.698;2022-10-16T02:54:25;24.40;;;16.80;;
50309;SDS011;36207;51.850;21.698;2022-10-16T02:56:52;27.20;;;16.00;;
50309;SDS011;36207;51.850;21.698;2022-10-16T02:59:18;19.70;;;14.70;;
50309;SDS011;36207;51.850;21.698;2022-10-16T03:01:44;23.30;;;16.20;;
50309;SDS011;36207;51.850;21.698;2022-10-16T03:04:10;23.80;;;15.50;;
50309;SDS011;36207;51.850;21.698;2022-10-16T03:06:36;23.60;;;16.40;;
50309;SDS011;36207;51.850;21.698;2022-10-16T03:09:02;23.30;;;16.40;;
50309;SDS011;36207;51.850;21.698;2022-10-16T03:11:29;24.00;;;16.50;;
50309;SDS011;36207;51.850;21.698;2022-10-16T03:13:55;23.10;;;15.50;;
50309;SDS011;36207;51.850;21.698;2022-10-16T03:16:22;22.70;;;16.00;;
50309;SDS011;36207;51.850;21.698;2022-10-16T03:18:48;24.30;;;16.10;;
50309;SDS011;36207;51.850;21.698;2022-10-16T03:21:15;21.30;;;16.00;;
50309;SDS011;36207;51.850;21.698;2022-10-16T03:23:42;23.20;;;17.20;;
50309;SDS011;36207;51.850;21.698;2022-10-16T03:26:08;24.80;;;16.50;;
50309;SDS011;36207;51.850;21.698;2022-10-16T03:28:34;26.00;;;15.90;;
50309;SDS011;36207;51.850;21.698;2022-10-16T03:31:00;24.40;;;16.60;;
50309;SDS011;36207;51.850;21.698;2022-10-16T03:33:26;24.60;;;16.30;;
50309;SDS011;36207;51.850;21.698;2022-10-16T03:35:53;24.20;;;16.50;;
50309;SDS011;36207;51.850;21.698;2022-10-16T03:38:20;22.60;;;16.00;;
50309;SDS011;36207;51.850;21.698;2022-10-16T03:40:47;24.60;;;16.70;;
50309;SDS011;36207;51.850;21.698;2022-10-16T03:43:14;22.20;;;15.30;;
50309;SDS011;36207;51.850;21.698;2022-10-16T03:45:40;24.00;;;16.40;;
50309;SDS011;36207;51.850;21.698;2022-10-16T03:48:06;22.90;;;16.20;;
50309;SDS011;36207;51.850;21.698;2022-10-16T03:50:32;25.20;;;16.10;;
50309;SDS011;36207;51.850;21.698;2022-10-16T03:52:58;20.00;;;15.40;;
50309;SDS011;36207;51.850;21.698;2022-10-16T03:55:24;22.50;;;15.20;;
50309;SDS011;36207;51.850;21.698;2022-10-16T03:57:50;20.70;;;15.00;;
50309;SDS011;36207;51.850;21.698;2022-10-16T04:00:16;22.00;;;15.00;;
50309;SDS011;36207;51.850;21.698;2022-10-16T04:02:42;19.90;;;15.20;;
50309;SDS011;36207;51.850;21.698;2022-10-16T04:05:08;20.10;;;14.80;;
50309;SDS011;36207;51.850;21.698;2022-10-16T04:07:35;20.00;;;14.60;;
50309;SDS011;36207;51.850;21.698;2022-10-16T04:10:01;21.80;;;14.80;;
50309;SDS011;36207;51.850;21.698;2022-10-16T04:12:28;20.20;;;15.00;;
50309;SDS011;36207;51.850;21.698;2022-10-16T04:14:54;21.90;;;15.50;;
50309;SDS011;36207;51.850;21.698;2022-10-16T04:17:20;20.50;;;14.40;;
50309;SDS011;36207;51.850;21.698;2022-10-16T04:19:47;22.20;;;15.40;;
50309;SDS011;36207;51.850;21.698;2022-10-16T04:22:13;21.80;;;15.40;;
50309;SDS011;36207;51.850;21.698;2022-10-16T04:24:39;21.80;;;15.70;;
50309;SDS011;36207;51.850;21.698;2022-10-16T04:27:05;20.50;;;15.30;;
50309;SDS011;36207;51.850;21.698;2022-10-16T04:29:32;23.40;;;15.50;;
50309;SDS011;36207;51.850;21.698;2022-10-16T04:31:58;24.30;;;16.60;;
50309;SDS011;36207;51.850;21.698;2022-10-16T04:34:24;20.40;;;14.60;;
50309;SDS011;36207;51.850;21.698;2022-10-16T04:36:50;22.50;;;15.50;;
50309;SDS011;36207;51.850;21.698;2022-10-16T04:39:16;21.00;;;15.60;;
50309;SDS011;36207;51.850;21.698;2022-10-16T04:41:43;23.20;;;15.40;;
50309;SDS011;36207;51.850;21.698;2022-10-16T04:44:09;20.80;;;15.50;;
50309;SDS011;36207;51.850;21.698;2022-10-16T04:46:35;20.50;;;14.90;;
50309;SDS011;36207;51.850;21.698;2022-10-16T04:49:01;21.60;;;15.30;;
50309;SDS011;36207;51.850;21.698;2022-10-16T04:51:28;21.50;;;16.10;;
50309;SDS011;36207;51.850;21.698;2022-10-16T04:53:54;21.20;;;15.50;;
50309;SDS011;36207;51.850;21.698;2022-10-16T04:56:21;25.50;;;16.50;;
50309;SDS011;36207;51.850;21.698;2022-10-16T04:58:47;21.70;;;15.60;;
50309;SDS011;36207;51.850;21.698;2022-10-16T05:01:13;21.10;;;15.30;;
50309;SDS011;36207;51.850;21.698;2022-10-16T05:03:39;23.60;;;16.20;;
50309;SDS011;36207;51.850;21.698;2022-10-16T05:06:06;26.00;;;16.40;;
50309;SDS011;36207;51.850;21.698;2022-10-16T05:08:32;25.00;;;15.70;;
50309;SDS011;36207;51.850;21.698;2022-10-16T05:10:58;26.60;;;15.60;;
50309;SDS011;36207;51.850;21.698;2022-10-16T05:13:25;23.20;;;15.70;;
50309;SDS011;36207;51.850;21.698;2022-10-16T05:15:52;24.40;;;15.80;;
50309;SDS011;36207;51.850;21.698;2022-10-16T05:18:18;23.00;;;16.10;;
50309;SDS011;36207;51.850;21.698;2022-10-16T05:20:44;24.90;;;16.40;;
50309;SDS011;36207;51.850;21.698;2022-10-16T05:23:10;23.20;;;16.20;;
50309;SDS011;36207;51.850;21.698;2022-10-16T05:25:37;22.80;;;15.60;;
50309;SDS011;36207;51.850;21.698;2022-10-16T05:28:03;21.80;;;16.00;;
50309;SDS011;36207;51.850;21.698;2022-10-16T05:30:30;24.70;;;16.10;;
50309;SDS011;36207;51.850;21.698;2022-10-16T05:32:56;23.10;;;16.30;;
50309;SDS011;36207;51.850;21.698;2022-10-16T05:35:22;24.00;;;17.00;;
50309;SDS011;36207;51.850;21.698;2022-10-16T05:37:49;22.30;;;15.60;;
50309;SDS011;36207;51.850;21.698;2022-10-16T05:40:15;24.10;;;15.60;;
50309;SDS011;36207;51.850;21.698;2022-10-16T05:42:42;21.90;;;15.50;;
50309;SDS011;36207;51.850;21.698;2022-10-16T05:45:09;23.00;;;16.40;;
50309;SDS011;36207;51.850;21.698;2022-10-16T05:47:37;21.30;;;16.20;;
50309;SDS011;36207;51.850;21.698;2022-10-16T05:50:03;25.30;;;15.80;;
50309;SDS011;36207;51.850;21.698;2022-10-16T05:52:30;23.40;;;15.80;;
50309;SDS011;36207;51.850;21.698;2022-10-16T05:54:56;22.90;;;16.40;;
50309;SDS011;36207;51.850;21.698;2022-10-16T05:57:22;23.60;;;16.60;;
50309;SDS011;36207;51.850;21.698;2022-10-16T05:59:48;23.60;;;15.90;;
50309;SDS011;36207;51.850;21.698;2022-10-16T06:02:14;25.40;;;16.50;;
50309;SDS011;36207;51.850;21.698;2022-10-16T06:04:41;20.40;;;15.20;;
50309;SDS011;36207;51.850;21.698;2022-10-16T06:07:07;25.10;;;14.80;;
50309;SDS011;36207;51.850;21.698;2022-10-16T06:09:33;24.20;;;15.60;;
50309;SDS011;36207;51.850;21.698;2022-10-16T06:12:00;22.40;;;15.80;;
50309;SDS011;36207;51.850;21.698;2022-10-16T06:14:26;22.60;;;15.90;;
50309;SDS011;36207;51.850;21.698;2022-10-16T06:16:52;24.10;;;16.10;;
50309;SDS011;36207;51.850;21.698;2022-10-16T06:19:18;21.00;;;15.60;;
50309;SDS011;36207;51.850;21.698;2022-10-16T06:21:44;23.50;;;15.90;;
50309;SDS011;36207;51.850;21.698;2022-10-16T06:24:10;24.10;;;16.00;;
50309;SDS011;36207;51.850;21.698;2022-10-16T06:26:37;24.40;;;16.10;;
50309;SDS011;36207;51.850;21.698;2022-10-16T06:29:04;24.40;;;16.40;;
50309;SDS011;36207;51.850;21.698;2022-10-16T06:31:30;23.50;;;15.90;;
50309;SDS011;36207;51.850;21.698;2022-10-16T06:33:59;21.30;;;14.80;;
50309;SDS011;36207;51.850;21.698;2022-10-16T06:36:26;22.90;;;14.80;;
50309;SDS011;36207;51.850;21.698;2022-10-16T06:38:53;20.10;;;14.50;;
50309;SDS011;36207;51.850;21.698;2022-10-16T06:41:23;23.60;;;15.20;;
50309;SDS011;36207;51.850;21.698;2022-10-16T06:43:49;21.30;;;14.80;;
50309;SDS011;36207;51.850;21.698;2022-10-16T06:46:16;23.50;;;15.00;;
50309;SDS011;36207;51.850;21.698;2022-10-16T06:48:45;22.30;;;14.70;;
50309;SDS011;36207;51.850;21.698;2022-10-16T06:51:13;20.60;;;14.60;;
50309;SDS011;36207;51.850;21.698;2022-10-16T06:53:42;21.40;;;14.70;;
50309;SDS011;36207;51.850;21.698;2022-10-16T06:56:11;23.50;;;14.90;;
50309;SDS011;36207;51.850;21.698;2022-10-16T06:58:43;23.00;;;15.20;;
50309;SDS011;36207;51.850;21.698;2022-10-16T07:01:10;20.70;;;14.10;;
50309;SDS011;36207;51.850;21.698;2022-10-16T07:03:38;22.30;;;14.90;;
50309;SDS011;36207;51.850;21.698;2022-10-16T07:06:05;23.00;;;14.20;;
50309;SDS011;36207;51.850;21.698;2022-10-16T07:08:33;20.80;;;15.00;;
50309;SDS011;36207;51.850;21.698;2022-10-16T07:11:01;19.40;;;14.40;;
50309;SDS011;36207;51.850;21.698;2022-10-16T07:13:28;23.40;;;15.20;;
50309;SDS011;36207;51.850;21.698;2022-10-16T07:15:54;21.30;;;15.00;;
50309;SDS011;36207;51.850;21.698;2022-10-16T07:18:20;21.40;;;14.50;;
50309;SDS011;36207;51.850;21.698;2022-10-16T07:20:51;21.80;;;14.20;;
50309;SDS011;36207;51.850;21.698;2022-10-16T07:23:18;19.00;;;14.10;;
50309;SDS011;36207;51.850;21.698;2022-10-16T07:25:44;19.50;;;14.20;;
50309;SDS011;36207;51.850;21.698;2022-10-16T07:28:10;18.90;;;13.50;;
50309;SDS011;36207;51.850;21.698;2022-10-16T07:30:37;18.20;;;13.70;;
50309;SDS011;36207;51.850;21.698;2022-10-16T07:33:03;18.50;;;13.50;;
50309;SDS011;36207;51.850;21.698;2022-10-16T07:35:29;19.10;;;13.20;;
50309;SDS011;36207;51.850;21.698;2022-10-16T07:37:56;22.00;;;13.40;;
50309;SDS011;36207;51.850;21.698;2022-10-16T07:40:22;20.30;;;13.40;;
50309;SDS011;36207;51.850;21.698;2022-10-16T07:42:48;20.40;;;13.50;;
50309;SDS011;36207;51.850;21.698;2022-10-16T07:45:14;21.00;;;13.40;;
50309;SDS011;36207;51.850;21.698;2022-10-16T07:47:40;19.90;;;13.10;;
50309;SDS011;36207;51.850;21.698;2022-10-16T07:50:06;18.00;;;12.50;;
50309;SDS011;36207;51.850;21.698;2022-10-16T07:52:33;17.50;;;12.60;;
50309;SDS011;36207;51.850;21.698;2022-10-16T07:54:59;18.00;;;11.90;;
50309;SDS011;36207;51.850;21.698;2022-10-16T07:57:25;16.80;;;11.40;;
50309;SDS011;36207;51.850;21.698;2022-10-16T07:59:51;17.50;;;11.50;;
50309;SDS011;36207;51.850;21.698;2022-10-16T08:02:17;17.40;;;12.00;;
50309;SDS011;36207;51.850;21.698;2022-10-16T08:04:46;17.80;;;12.00;;
50309;SDS011;36207;51.850;21.698;2022-10-16T08:07:12;16.90;;;11.50;;
50309;SDS011;36207;51.850;21.698;2022-10-16T08:09:39;17.80;;;11.70;;
50309;SDS011;36207;51.850;21.698;2022-10-16T08:12:05;17.00;;;11.50;;
50309;SDS011;36207;51.850;21.698;2022-10-16T08:14:31;18.80;;;11.70;;
50309;SDS011;36207;51.850;21.698;2022-10-16T08:16:57;15.40;;;12.00;;
50309;SDS011;36207;51.850;21.698;2022-10-16T08:19:23;15.70;;;11.80;;
50309;SDS011;36207;51.850;21.698;2022-10-16T08:21:49;16.30;;;11.80;;
50309;SDS011;36207;51.850;21.698;2022-10-16T08:24:15;17.10;;;11.00;;
50309;SDS011;36207;51.850;21.698;2022-10-16T08:26:42;17.80;;;11.70;;
50309;SDS011;36207;51.850;21.698;2022-10-16T08:29:08;15.10;;;11.60;;
50309;SDS011;36207;51.850;21.698;2022-10-16T08:31:34;17.00;;;11.50;;
50309;SDS011;36207;51.850;21.698;2022-10-16T08:34:00;17.30;;;12.30;;
50309;SDS011;36207;51.850;21.698;2022-10-16T08:36:27;21.90;;;12.70;;
50309;SDS011;36207;51.850;21.698;2022-10-16T08:38:54;18.00;;;12.20;;
50309;SDS011;36207;51.850;21.698;2022-10-16T08:49:31;16.60;;;12.10;;
50309;SDS011;36207;51.850;21.698;2022-10-16T08:51:57;20.80;;;12.20;;
50309;SDS011;36207;51.850;21.698;2022-10-16T08:54:34;17.80;;;12.20;;
50309;SDS011;36207;51.850;21.698;2022-10-16T08:57:09;18.00;;;11.80;;
50309;SDS011;36207;51.850;21.698;2022-10-16T08:59:39;20.90;;;12.30;;
50309;SDS011;36207;51.850;21.698;2022-10-16T09:02:39;21.20;;;12.30;;
50309;SDS011;36207;51.850;21.698;2022-10-16T09:08:09;16.60;;;10.90;;
50309;SDS011;36207;51.850;21.698;2022-10-16T09:10:59;17.50;;;11.60;;
50309;SDS011;36207;51.850;21.698;2022-10-16T09:13:55;16.90;;;11.80;;
50309;SDS011;36207;51.850;21.698;2022-10-16T09:16:33;15.00;;;10.90;;
50309;SDS011;36207;51.850;21.698;2022-10-16T09:21:56;16.30;;;10.70;;
50309;SDS011;36207;51.850;21.698;2022-10-16T09:24:34;18.70;;;11.10;;
50309;SDS011;36207;51.850;21.698;2022-10-16T09:27:01;18.00;;;11.10;;
50309;SDS011;36207;51.850;21.698;2022-10-16T09:29:27;18.60;;;11.20;;
50309;SDS011;36207;51.850;21.698;2022-10-16T09:31:53;15.20;;;10.80;;
50309;SDS011;36207;51.850;21.698;2022-10-16T09:34:34;15.60;;;11.20;;
50309;SDS011;36207;51.850;21.698;2022-10-16T09:37:12;16.40;;;11.60;;
50309;SDS011;36207;51.850;21.698;2022-10-16T09:39:52;18.50;;;11.60;;
50309;SDS011;36207;51.850;21.698;2022-10-16T09:42:20;21.20;;;12.00;;
50309;SDS011;36207;51.850;21.698;2022-10-16T09:44:54;19.20;;;11.80;;
50309;SDS011;36207;51.850;21.698;2022-10-16T09:47:21;16.20;;;10.90;;
50309;SDS011;36207;51.850;21.698;2022-10-16T09:49:57;15.40;;;11.20;;
50309;SDS011;36207;51.850;21.698;2022-10-16T09:52:28;17.90;;;10.50;;
50309;SDS011;36207;51.850;21.698;2022-10-16T09:54:56;15.80;;;10.90;;
50309;SDS011;36207;51.850;21.698;2022-10-16T09:57:23;16.70;;;10.70;;
50309;SDS011;36207;51.850;21.698;2022-10-16T09:59:50;19.20;;;11.20;;
50309;SDS011;36207;51.850;21.698;2022-10-16T10:02:20;14.20;;;10.20;;
50309;SDS011;36207;51.850;21.698;2022-10-16T10:04:55;14.90;;;10.90;;
50309;SDS011;36207;51.850;21.698;2022-10-16T10:07:35;14.50;;;11.00;;
50309;SDS011;36207;51.850;21.698;2022-10-16T10:10:26;18.00;;;10.50;;
50309;SDS011;36207;51.850;21.698;2022-10-16T10:12:55;14.70;;;10.20;;
50309;SDS011;36207;51.850;21.698;2022-10-16T10:15:22;16.00;;;10.30;;
50309;SDS011;36207;51.850;21.698;2022-10-16T10:17:53;14.10;;;9.90;;
50309;SDS011;36207;51.850;21.698;2022-10-16T10:20:31;13.50;;;10.10;;
50309;SDS011;36207;51.850;21.698;2022-10-16T10:23:20;15.40;;;9.90;;
50309;SDS011;36207;51.850;21.698;2022-10-16T10:31:29;13.90;;;10.00;;
50309;SDS011;36207;51.850;21.698;2022-10-16T10:37:08;13.80;;;9.80;;
50309;SDS011;36207;51.850;21.698;2022-10-16T10:39:57;13.00;;;9.80;;
50309;SDS011;36207;51.850;21.698;2022-10-16T10:42:43;13.10;;;10.30;;
50309;SDS011;36207;51.850;21.698;2022-10-16T10:48:24;14.10;;;9.80;;
50309;SDS011;36207;51.850;21.698;2022-10-16T10:51:00;13.80;;;9.80;;
50309;SDS011;36207;51.850;21.698;2022-10-16T10:56:58;16.20;;;9.70;;
50309;SDS011;36207;51.850;21.698;2022-10-16T10:59:32;15.10;;;9.70;;
50309;SDS011;36207;51.850;21.698;2022-10-16T11:07:30;13.20;;;9.50;;
50309;SDS011;36207;51.850;21.698;2022-10-16T11:10:04;15.70;;;10.00;;
50309;SDS011;36207;51.850;21.698;2022-10-16T11:12:40;14.30;;;10.30;;
50309;SDS011;36207;51.850;21.698;2022-10-16T11:15:13;13.20;;;9.60;;
50309;SDS011;36207;51.850;21.698;2022-10-16T11:20:24;12.90;;;9.80;;
50309;SDS011;36207;51.850;21.698;2022-10-16T11:23:02;18.70;;;10.30;;
50309;SDS011;36207;51.850;21.698;2022-10-16T11:25:37;15.60;;;9.80;;
50309;SDS011;36207;51.850;21.698;2022-10-16T11:28:08;13.30;;;9.50;;
50309;SDS011;36207;51.850;21.698;2022-10-16T11:30:47;15.10;;;9.60;;
50309;SDS011;36207;51.850;21.698;2022-10-16T11:33:55;14.70;;;10.10;;
50309;SDS011;36207;51.850;21.698;2022-10-16T11:36:52;15.80;;;9.40;;
50309;SDS011;36207;51.850;21.698;2022-10-16T11:49:57;15.90;;;10.00;;
50309;SDS011;36207;51.850;21.698;2022-10-16T11:52:33;17.20;;;10.70;;
50309;SDS011;36207;51.850;21.698;2022-10-16T11:58:02;14.10;;;9.90;;
50309;SDS011;36207;51.850;21.698;2022-10-16T12:09:15;14.00;;;9.80;;
50309;SDS011;36207;51.850;21.698;2022-10-16T12:11:52;15.50;;;9.40;;
50309;SDS011;36207;51.850;21.698;2022-10-16T12:14:20;12.90;;;10.00;;
50309;SDS011;36207;51.850;21.698;2022-10-16T12:17:46;13.90;;;9.90;;
50309;SDS011;36207;51.850;21.698;2022-10-16T12:20:18;15.60;;;9.50;;
50309;SDS011;36207;51.850;21.698;2022-10-16T12:22:57;13.70;;;9.40;;
50309;SDS011;36207;51.850;21.698;2022-10-16T12:27:58;13.10;;;9.70;;
50309;SDS011;36207;51.850;21.698;2022-10-16T12:30:30;14.70;;;8.80;;
50309;SDS011;36207;51.850;21.698;2022-10-16T12:33:01;12.10;;;9.40;;
50309;SDS011;36207;51.850;21.698;2022-10-16T12:35:32;11.70;;;9.60;;
50309;SDS011;36207;51.850;21.698;2022-10-16T12:41:04;16.30;;;9.70;;
50309;SDS011;36207;51.850;21.698;2022-10-16T12:43:54;13.00;;;8.90;;
50309;SDS011;36207;51.850;21.698;2022-10-16T12:46:42;13.70;;;9.20;;
50309;SDS011;36207;51.850;21.698;2022-10-16T12:54:17;13.30;;;9.40;;
50309;SDS011;36207;51.850;21.698;2022-10-16T12:59:29;15.10;;;9.30;;
50309;SDS011;36207;51.850;21.698;2022-10-16T13:10:05;15.40;;;9.90;;
50309;SDS011;36207;51.850;21.698;2022-10-16T13:18:22;14.90;;;9.30;;
50309;SDS011;36207;51.850;21.698;2022-10-16T13:21:00;15.20;;;9.90;;
50309;SDS011;36207;51.850;21.698;2022-10-16T13:27:27;13.00;;;9.80;;
50309;SDS011;36207;51.850;21.698;2022-10-16T13:35:54;17.80;;;9.60;;
50309;SDS011;36207;51.850;21.698;2022-10-16T13:38:25;13.90;;;10.00;;
50309;SDS011;36207;51.850;21.698;2022-10-16T13:43:19;13.40;;;10.30;;
50309;SDS011;36207;51.850;21.698;2022-10-16T13:45:54;13.30;;;9.90;;
50309;SDS011;36207;51.850;21.698;2022-10-16T13:48:25;17.70;;;10.00;;
50309;SDS011;36207;51.850;21.698;2022-10-16T13:50:58;14.60;;;9.90;;
50309;SDS011;36207;51.850;21.698;2022-10-16T13:53:33;18.50;;;10.70;;
50309;SDS011;36207;51.850;21.698;2022-10-16T13:56:05;16.60;;;10.10;;
50309;SDS011;36207;51.850;21.698;2022-10-16T13:58:33;14.70;;;9.80;;
50309;SDS011;36207;51.850;21.698;2022-10-16T14:01:00;15.20;;;10.00;;
50309;SDS011;36207;51.850;21.698;2022-10-16T14:03:31;13.90;;;10.20;;
50309;SDS011;36207;51.850;21.698;2022-10-16T14:06:00;15.60;;;10.20;;
50309;SDS011;36207;51.850;21.698;2022-10-16T14:08:29;14.40;;;10.10;;
50309;SDS011;36207;51.850;21.698;2022-10-16T14:10:58;15.70;;;10.90;;
50309;SDS011;36207;51.850;21.698;2022-10-16T14:16:15;16.30;;;10.00;;
50309;SDS011;36207;51.850;21.698;2022-10-16T14:18:45;14.50;;;10.40;;
50309;SDS011;36207;51.850;21.698;2022-10-16T14:23:44;16.00;;;11.00;;
50309;SDS011;36207;51.850;21.698;2022-10-16T14:28:36;13.50;;;10.30;;
50309;SDS011;36207;51.850;21.698;2022-10-16T14:34:03;15.10;;;11.20;;
50309;SDS011;36207;51.850;21.698;2022-10-16T14:36:30;19.10;;;11.90;;
50309;SDS011;36207;51.850;21.698;2022-10-16T14:41:47;14.30;;;10.20;;
50309;SDS011;36207;51.850;21.698;2022-10-16T14:44:17;15.60;;;10.70;;
50309;SDS011;36207;51.850;21.698;2022-10-16T14:46:45;15.20;;;10.90;;
50309;SDS011;36207;51.850;21.698;2022-10-16T14:51:39;17.30;;;11.20;;
50309;SDS011;36207;51.850;21.698;2022-10-16T14:54:11;15.80;;;10.70;;
50309;SDS011;36207;51.850;21.698;2022-10-16T14:59:37;14.90;;;10.50;;
50309;SDS011;36207;51.850;21.698;2022-10-16T15:04:53;21.30;;;13.80;;
50309;SDS011;36207;51.850;21.698;2022-10-16T15:07:19;21.40;;;13.90;;
50309;SDS011;36207;51.850;21.698;2022-10-16T15:09:45;17.90;;;11.90;;
50309;SDS011;36207;51.850;21.698;2022-10-16T15:12:11;18.20;;;11.60;;
50309;SDS011;36207;51.850;21.698;2022-10-16T15:14:38;15.80;;;11.60;;
50309;SDS011;36207;51.850;21.698;2022-10-16T15:17:04;18.80;;;11.80;;
50309;SDS011;36207;51.850;21.698;2022-10-16T15:19:30;16.50;;;11.50;;
50309;SDS011;36207;51.850;21.698;2022-10-16T15:21:56;17.60;;;11.70;;
50309;SDS011;36207;51.850;21.698;2022-10-16T15:24:23;17.60;;;11.40;;
50309;SDS011;36207;51.850;21.698;2022-10-16T15:26:49;14.30;;;10.50;;
50309;SDS011;36207;51.850;21.698;2022-10-16T15:29:15;17.20;;;10.60;;
50309;SDS011;36207;51.850;21.698;2022-10-16T15:31:41;16.10;;;10.80;;
50309;SDS011;36207;51.850;21.698;2022-10-16T15:34:13;15.00;;;11.50;;
50309;SDS011;36207;51.850;21.698;2022-10-16T15:36:40;15.00;;;10.90;;
50309;SDS011;36207;51.850;21.698;2022-10-16T15:39:16;18.90;;;11.00;;
50309;SDS011;36207;51.850;21.698;2022-10-16T15:41:45;16.90;;;11.40;;
50309;SDS011;36207;51.850;21.698;2022-10-16T15:44:16;23.00;;;15.70;;
50309;SDS011;36207;51.850;21.698;2022-10-16T15:46:43;18.30;;;14.30;;
50309;SDS011;36207;51.850;21.698;2022-10-16T15:49:09;21.70;;;15.10;;
50309;SDS011;36207;51.850;21.698;2022-10-16T15:51:40;18.70;;;15.70;;
50309;SDS011;36207;51.850;21.698;2022-10-16T15:54:08;20.80;;;13.00;;
50309;SDS011;36207;51.850;21.698;2022-10-16T15:56:34;15.90;;;12.00;;
50309;SDS011;36207;51.850;21.698;2022-10-16T15:59:02;18.60;;;11.60;;
50309;SDS011;36207;51.850;21.698;2022-10-16T16:01:31;21.20;;;16.30;;
50309;SDS011;36207;51.850;21.698;2022-10-16T16:03:59;16.70;;;11.30;;
50309;SDS011;36207;51.850;21.698;2022-10-16T16:06:26;20.40;;;11.80;;
50309;SDS011;36207;51.850;21.698;2022-10-16T16:08:52;19.80;;;11.90;;
50309;SDS011;36207;51.850;21.698;2022-10-16T16:11:19;15.80;;;11.50;;
50309;SDS011;36207;51.850;21.698;2022-10-16T16:13:46;19.00;;;12.00;;
50309;SDS011;36207;51.850;21.698;2022-10-16T16:16:14;16.50;;;11.90;;
50309;SDS011;36207;51.850;21.698;2022-10-16T16:18:42;17.30;;;11.90;;
50309;SDS011;36207;51.850;21.698;2022-10-16T16:21:10;16.30;;;11.00;;
50309;SDS011;36207;51.850;21.698;2022-10-16T16:23:37;15.10;;;11.40;;
50309;SDS011;36207;51.850;21.698;2022-10-16T16:26:15;18.30;;;12.40;;
50309;SDS011;36207;51.850;21.698;2022-10-16T16:28:52;14.70;;;11.50;;
50309;SDS011;36207;51.850;21.698;2022-10-16T16:31:20;16.60;;;11.30;;
50309;SDS011;36207;51.850;21.698;2022-10-16T16:33:49;19.80;;;11.80;;
50309;SDS011;36207;51.850;21.698;2022-10-16T16:36:16;16.00;;;11.00;;
50309;SDS011;36207;51.850;21.698;2022-10-16T16:38:46;13.90;;;11.00;;
50309;SDS011;36207;51.850;21.698;2022-10-16T16:41:13;15.80;;;11.80;;
50309;SDS011;36207;51.850;21.698;2022-10-16T16:43:42;19.90;;;12.10;;
50309;SDS011;36207;51.850;21.698;2022-10-16T16:46:09;17.00;;;11.30;;
50309;SDS011;36207;51.850;21.698;2022-10-16T16:48:36;18.10;;;11.80;;
50309;SDS011;36207;51.850;21.698;2022-10-16T16:51:04;18.00;;;11.40;;